Meteo Giornale » Osservazioni meteo Italia » Perugia

ore: 16:50 - Osservazioni Meteo Perugia
Lat. 43° 5' N Lon. 12° 30' E Alt. 208 metri s.l.m.

nuvoloso Europe/Rome

5 °C

Nuvoloso

Temp. 24 Ore

-4 °C

7 °C

Nord

3.7 Km/h

Dew point 1 °C

Umidità 75 %

Visibilità  10 Km

Il sole sorge alle ore 07:30

Il sole tramonta alle ore 16:36

Data e Ora Cielo e Fenomeni T °C DP °C Um. % Pres. hPa Vis. km Vento km/h
Oggi h: 16:50 nuvoloso Nuvoloso 5 1 75 1018 10 N 3.7
Oggi h: 15:50 nuvoloso Nuvoloso 6 1 70 1018 10 N 3.7
Oggi h: 14:50 poco_nuvoloso Poco Nuvoloso 7 -0 60 1018 10 N 3.7
Oggi h: 13:50 poco_nuvoloso Poco Nuvoloso 7 -1 56 1018 10 N 1.8
Oggi h: 12:50 sereno Sereno 5 -2 60 1019 10 N 3.7
Oggi h: 11:50 sereno Sereno 3 -2 69 1019 10 N 1.8
Oggi h: 10:50 sereno Sereno 3 -1 74 1020 10 N 1.8
Oggi h: 09:50 sereno Sereno 0 -2 86 1020 10 N 5.5
Oggi h: 08:50 sereno Sereno -2 -3 92 1020 10 N 11.1
Oggi h: 07:50 sereno Sereno -4 -5 92 1020 10 N 9.3
Oggi h: 06:50 sereno Sereno -4 -4 100 1020 10 N 3.7
Oggi h: 05:50 sereno Sereno -2 -4 86 1019 10 N 9.3
Oggi h: 04:50 sereno Sereno -1 -3 86 1019 10 N/NO 11.1
Oggi h: 03:50 sereno Sereno -2 -4 86 1020 10 N 7.4
Oggi h: 02:50 sereno Sereno -2 -3 92 1020 10 N 9.3
Oggi h: 01:50 sereno Sereno -2 -3 92 1019 10 N 9.3
Oggi h: 00:50 sereno Sereno -1 -2 92 1019 10 N 7.4
Ieri h: 23:50 sereno Sereno -0 -2 86 1019 10 N 13
Ieri h: 22:50 sereno Sereno -0 -2 86 1019 10 N 3.7
Ieri h: 21:50 sereno Sereno 1 -2 80 1019 10 N 1.8
Ieri h: 20:50 sereno Sereno 2 -2 74 1018 10 N 11.1
Ieri h: 19:50 sereno Sereno 2 -1 80 1018 10 N 14.8
Ieri h: 18:50 sereno Sereno 4 -2 64 1018 10 N/NE 9.3
Ieri h: 17:50 sereno Sereno 5 -1 65 1018 10 N 14.8